EGNV Airport Information

Runway Information
Runway 05 Length 7516 ft width 148 ft
Elevation 115 ft Threshold ft Heading 48
Runway 23 Length 7516 ft Width 148 ft
Elevation 116 ft Threshold ft Heading 228
Airport Frequencies
Type ATIS Name ATIS Frequency 132.375 MHZ
Type RADAR Name Durham Rad Frequency 118.85 MHZ
Type TWR Name Durham Tow Frequency 119.8 MHZ
Airport Navaids
Airport Weather Information & NOTAM
ADDS - METARS form results

(2330 UTC 09 August 2022)
Data provider http://aviationweather.gov/metar/data/
 
Forecast for: EGNV (TEES-SIDE , GB)
Text: TAF EGNV 092002Z 0921/0923 12008KT 9999 FEW045
Forecast period: 2100 to 2300 UTC 09 August 2022
Forecast type: FROM: standard forecast or significant change
Winds: from the ESE (120 degrees) at 9 MPH (8 knots; 4.1 m/s)
Visibility: 6 or more miles (10+ km)
Ceiling: at least 12,000 feet AGL
Clouds: few clouds at 4500 feet AGL
Weather: no significant weather forecast for this period